Etusivu
METAR-TAF:

METAR-TAF

Lentoasemat :

Islamabad, Pakistan

Leveyspiiri: 33-32-57N, Pituuspiiri: 072-49-32E, korkeus merenpinnasta: 537 m

Tämänhetkinen sää

Tämä raportti tehtiin 43 minuuttia sitten, kello 12.55 UTC
Tuuli 7 kn luoteesta
Lämpötila 26°C
Kosteus 39%
Ilmanpaine 1013 hPa
Näkyvyys: 6000 m
Muutamia pilviä 4000 ft:n korkeudessa
Hajanaisia pilviä 10000 ft:n korkeudessa

METAR: OPIS 111255Z 31007KT 6000 FEW040 SCT100 26/11 Q1013 TEMPO 31015G30KT 3000 TSRA FEW025CB

Aika: 18:38 (13:38 UTC)

Sääennuste

Tämä raportti tehtiin 3 tuntia ja 38 minuuttia sitten, kello 10.00 UTC
Ennuste voimassa 11. päivästä klo 12 UTC - 12. päivään klo 18 UTC
Tuuli 8 kn luoteesta
Näkyvyys: 5000 m
Muutamia pilviä 4000 ft:n korkeudessa
Hajanaisia pilviä 10000 ft:n korkeudessa
usvaa
Ajoittain
12. päivästä klo 06 UTC - 12. päivään klo 09 UTC
Tuuli 10 kn lännestä puuskistuen 20 kn:hen

TAF: OPIS 111000Z 1112/1218 31008KT 5000 HZ FEW040 SCT100 TEMPO 1206/1209 27010G20KT

Säähavainnot ja -ennusteet yli 4000 lentoasemalta (METAR- ja TAF-raportit).

Käytössä olevat sääasemat on merkitty karttaan keltaisilla ja punaisilla pisteillä.

Aseta hiiri pisteen päälle nähdäksesi sääaseman nimen.

Klikkaa sitten nähdäksesi säähavainnot ja -ennusteet.

Kartan vaihtaminen: klikkaa mustalla rastilla varustettuja vihreitä pisteitä, niin voit zoomata sisään; viivalla varustettua vihreää pistettä, niin voit zoomata ulos tai vihreitä nuolia, niin pääset viereisille kartoille.


METAR-TAF: